Time;durP1;ratioP1;P1;durP2;ratioP2;P2;SDS_P1;SDS_P2;PMS_P1;PMS_P2;Temp;Humidity;BMP_temperature;BMP_pressure;BME280_temperature;BME280_humidity;BME280_pressure;Samples;Min_cycle;Max_cycle;Signal;HPM_P1;HPM_P2
2023/02/14 00:01:23;;;;;;;34.10;16.27;;;;;;;-1.47;100.00;100039.66;5054584;28;20228;-75
2023/02/14 00:03:49;;;;;;;35.60;16.90;;;;;;;-1.54;100.00;100037.88;5054446;28;20719;-76
2023/02/14 00:06:16;;;;;;;33.97;16.67;;;;;;;-1.58;100.00;100036.09;5054086;28;20221;-75
2023/02/14 00:08:44;;;;;;;35.97;17.47;;;;;;;-1.61;100.00;100036.09;5054396;28;20208;-75
2023/02/14 00:11:11;;;;;;;36.30;17.10;;;;;;;-1.54;100.00;100036.13;5054539;28;20214;-78
2023/02/14 00:15:20;;;;;;;43.23;17.60;;;;;;;-1.48;100.00;100030.16;5054416;28;20215;-76
2023/02/14 00:16:25;;;;;;;31.30;16.33;;;;;;;-1.47;100.00;100034.47;5065019;23;20267;-80
2023/02/14 00:19:03;;;;;;;30.53;16.13;;;;;;;-1.56;100.00;100034.38;5054023;28;20219;-80
2023/02/14 00:21:30;;;;;;;33.27;16.00;;;;;;;-1.64;100.00;100038.63;5054101;28;20228;-80
2023/02/14 00:23:56;;;;;;;35.47;16.93;;;;;;;-1.70;100.00;100036.00;5054223;28;20207;-79
2023/02/14 00:26:23;;;;;;;36.33;17.33;;;;;;;-1.75;100.00;100038.56;5053641;28;20224;-80
2023/02/14 00:28:51;;;;;;;38.97;17.37;;;;;;;-1.74;100.00;100036.81;5053684;28;20207;-80
2023/02/14 00:31:17;;;;;;;35.47;16.17;;;;;;;-1.79;100.00;100043.69;5053786;28;20204;-80
2023/02/14 00:33:43;;;;;;;35.23;16.77;;;;;;;-1.76;100.00;100035.94;5053977;28;20208;-80
2023/02/14 00:36:11;;;;;;;42.10;18.87;;;;;;;-1.78;100.00;100037.66;5053502;28;20224;-80
2023/02/14 00:38:38;;;;;;;40.60;17.30;;;;;;;-1.76;100.00;100030.75;5053785;28;20204;-82
2023/02/14 00:41:05;;;;;;;36.70;17.83;;;;;;;-1.76;100.00;100035.94;5053693;28;20235;-79
2023/02/14 00:43:31;;;;;;;34.13;17.07;;;;;;;-1.70;100.00;100036.88;5053353;28;20208;-78
2023/02/14 00:45:59;;;;;;;46.67;18.80;;;;;;;-1.64;100.00;100029.16;5053513;28;20228;-78
2023/02/14 00:48:25;;;;;;;36.40;17.43;;;;;;;-1.65;100.00;100039.50;5053223;28;20211;-80
2023/02/14 00:50:52;;;;;;;35.27;17.03;;;;;;;-1.74;100.00;100039.41;5053261;28;20592;-79
2023/02/14 00:53:18;;;;;;;35.17;16.47;;;;;;;-1.84;100.00;100038.44;5053390;28;20223;-78
2023/02/14 00:55:45;;;;;;;37.40;17.20;;;;;;;-1.96;100.00;100038.31;5053143;28;20234;-78
2023/02/14 00:58:12;;;;;;;33.77;17.30;;;;;;;-2.02;100.00;100040.00;5053145;28;20257;-79
2023/02/14 01:00:38;;;;;;;37.20;17.20;;;;;;;-2.04;100.00;100033.91;5053357;28;20207;-79
2023/02/14 01:03:06;;;;;;;32.93;15.63;;;;;;;-2.01;100.00;100039.13;5053396;28;20207;-78
2023/02/14 01:05:33;;;;;;;37.10;16.90;;;;;;;-1.99;100.00;100037.41;5053298;28;20568;-78
2023/02/14 01:07:59;;;;;;;35.20;15.70;;;;;;;-1.98;100.00;100040.03;5052979;28;20215;-79
2023/02/14 01:10:25;;;;;;;36.80;17.63;;;;;;;-1.93;100.00;100042.66;5053072;28;20689;-78
2023/02/14 01:12:52;;;;;;;35.00;16.83;;;;;;;-1.93;100.00;100043.56;5052986;28;20302;-78
2023/02/14 01:15:19;;;;;;;38.03;17.70;;;;;;;-1.91;100.00;100041.84;5053132;28;20232;-78
2023/02/14 01:17:45;;;;;;;33.27;16.50;;;;;;;-1.88;100.00;100041.00;5052905;28;20621;-78
2023/02/14 01:20:14;;;;;;;34.67;17.83;;;;;;;-1.81;100.00;100033.31;5052999;28;20286;-81
2023/02/14 01:22:41;;;;;;;36.07;17.93;;;;;;;-1.72;100.00;100038.56;5052762;28;20224;-78
2023/02/14 01:25:07;;;;;;;34.63;17.33;;;;;;;-1.75;100.00;100040.25;5052667;28;20231;-78
2023/02/14 01:27:34;;;;;;;36.03;16.97;;;;;;;-1.78;100.00;100027.28;5052620;28;20216;-78
2023/02/14 01:30:00;;;;;;;33.20;17.10;;;;;;;-1.85;100.00;100030.69;5052924;28;20213;-80
2023/02/14 01:32:30;;;;;;;32.27;17.20;;;;;;;-1.89;100.00;100028.91;5052917;28;20230;-80
2023/02/14 01:34:56;;;;;;;33.80;17.23;;;;;;;-1.79;100.00;100025.56;5052587;28;20736;-79
2023/02/14 01:37:24;;;;;;;32.27;17.30;;;;;;;-1.82;100.00;100033.28;5052286;28;20216;-79
2023/02/14 01:39:51;;;;;;;38.50;18.23;;;;;;;-1.88;100.00;100020.25;5052476;28;20660;-79
2023/02/14 01:42:17;;;;;;;32.73;16.97;;;;;;;-1.89;100.00;100023.72;5052597;28;20232;-79
2023/02/14 01:45:04;;;;;;;30.47;15.63;;;;;;;-2.01;100.00;100024.47;5052321;28;20242;-79
2023/02/14 01:47:34;;;;;;;31.97;15.77;;;;;;;-2.06;100.00;100028.72;5052643;28;20380;-79
2023/02/14 01:50:07;;;;;;;33.40;16.77;;;;;;;-2.04;100.00;100019.25;5052430;28;20219;-79
2023/02/14 01:52:38;;;;;;;37.20;18.10;;;;;;;-1.92;100.00;100023.66;5052346;28;20653;-80
2023/02/14 01:55:08;;;;;;;35.37;17.90;;;;;;;-1.85;100.00;100021.16;5052382;28;20239;-79
2023/02/14 01:57:38;;;;;;;33.63;17.30;;;;;;;-1.90;100.00;100016.81;5052051;28;20215;-79
2023/02/14 02:02:51;;;;;;;32.17;16.37;;;;;;;-2.11;100.00;100026.91;5051117;28;20227;-79
2023/02/14 02:05:22;;;;;;;32.40;17.00;;;;;;;-2.11;100.00;100022.63;5052353;28;20227;-79
2023/02/14 02:07:51;;;;;;;32.43;16.03;;;;;;;-2.14;100.00;100021.72;5051760;28;20208;-79
2023/02/14 02:10:18;;;;;;;31.87;16.10;;;;;;;-2.17;100.00;100029.44;5051771;28;20216;-78
2023/02/14 02:12:45;;;;;;;33.70;16.27;;;;;;;-2.16;100.00;100028.59;5051946;28;20207;-79
2023/02/14 02:15:12;;;;;;;34.83;17.47;;;;;;;-2.19;100.00;100025.97;5051550;28;20238;-79
2023/02/14 02:17:50;;;;;;;33.67;16.43;;;;;;;-2.18;100.00;100022.53;5051117;28;20231;-79
2023/02/14 02:20:35;;;;;;;33.97;16.63;;;;;;;-2.19;100.00;100015.63;5051918;28;20212;-79
2023/02/14 02:23:40;;;;;;;34.33;17.03;;;;;;;-2.23;100.00;100019.91;5051740;28;20601;-79
2023/02/14 02:26:35;;;;;;;36.43;17.57;;;;;;;-2.26;100.00;100022.44;5029436;28;20231;-79
2023/02/14 02:29:30;;;;;;;35.77;16.83;;;;;;;-2.19;100.00;100024.28;5051750;28;20215;-79
2023/02/14 02:32:21;;;;;;;33.07;16.80;;;;;;;-2.22;100.00;100023.34;5041498;28;20204;-79
2023/02/14 02:35:15;;;;;;;38.00;17.13;;;;;;;-2.21;100.00;100019.94;5051730;28;20238;-79
2023/02/14 02:37:51;;;;;;;36.83;16.30;;;;;;;-2.25;100.00;100025.91;5051303;28;20219;-79
2023/02/14 02:40:37;;;;;;;36.33;16.67;;;;;;;-2.32;100.00;100016.34;5051246;28;20218;-79
2023/02/14 02:43:18;;;;;;;38.03;18.07;;;;;;;-2.34;100.00;100015.47;5051472;28;20239;-80
2023/02/14 02:48:40;;;;;;;30.97;16.00;;;;;;;-2.50;100.00;100018.72;5051352;28;20214;-78
2023/02/14 02:54:08;;;;;;;32.97;16.47;;;;;;;-2.58;100.00;100031.56;5051305;28;20589;-79
2023/02/14 02:56:48;;;;;;;31.57;16.23;;;;;;;-2.59;100.00;100016.88;5051086;28;20235;-79
2023/02/14 02:59:18;;;;;;;41.03;17.97;;;;;;;-2.47;100.00;100021.31;5051678;28;20215;-80
2023/02/14 03:01:49;;;;;;;40.63;18.57;;;;;;;-2.41;100.00;100024.00;5051046;28;20708;-80
2023/02/14 03:07:33;;;;;;;36.83;16.87;;;;;;;-2.47;100.00;100013.56;5050881;28;20207;-79
2023/02/14 03:09:54;;;;;;;30.83;15.57;;;;;;;-2.44;100.00;100013.63;5050779;28;20246;-77
2023/02/14 03:12:41;;;;;;;35.13;16.87;;;;;;;-2.49;100.00;100020.44;5051261;28;20230;-80
2023/02/14 03:15:15;;;;;;;36.07;16.73;;;;;;;-2.49;100.00;100023.03;5050843;28;20771;-79
2023/02/14 03:17:55;;;;;;;39.50;17.87;;;;;;;-2.50;100.00;100022.16;5051192;28;20253;-80
2023/02/14 03:20:24;;;;;;;32.60;16.30;;;;;;;-2.46;100.00;100028.28;5051084;28;20215;-80
2023/02/14 03:23:02;;;;;;;33.73;17.00;;;;;;;-2.49;100.00;100023.03;5051000;28;20251;-80
2023/02/14 03:25:42;;;;;;;40.57;18.40;;;;;;;-2.47;100.00;100026.50;5050966;28;20228;-79
2023/02/14 03:28:14;;;;;;;37.03;17.57;;;;;;;-2.54;100.00;100029.88;5050546;28;20363;-80
2023/02/14 03:30:50;;;;;;;35.37;17.20;;;;;;;-2.55;100.00;100030.72;5052625;28;20210;-80
2023/02/14 03:33:20;;;;;;;34.37;17.90;;;;;;;-2.62;100.00;100027.22;5055100;28;20203;-79
2023/02/14 03:35:54;;;;;;;37.00;16.67;;;;;;;-2.62;100.00;100026.31;5054897;28;20236;-79
2023/02/14 03:38:29;;;;;;;30.57;15.57;;;;;;;-2.65;100.00;100028.84;5054578;28;20676;-79
2023/02/14 03:41:00;;;;;;;36.67;16.17;;;;;;;-2.66;100.00;100029.72;5054985;28;20210;-79
2023/02/14 03:43:31;;;;;;;33.73;16.23;;;;;;;-2.65;100.00;100031.44;5054891;28;20256;-79
2023/02/14 03:46:05;;;;;;;36.77;16.73;;;;;;;-2.62;100.00;100021.16;5054831;28;20230;-79
2023/02/14 03:48:34;;;;;;;35.60;16.77;;;;;;;-2.63;100.00;100019.41;5054647;28;20234;-80
2023/02/14 03:51:04;;;;;;;34.50;16.20;;;;;;;-2.59;100.00;100031.53;5054755;28;20216;-79
2023/02/14 03:53:36;;;;;;;34.10;16.60;;;;;;;-2.60;100.00;100017.72;5054579;28;20207;-78
2023/02/14 03:56:10;;;;;;;37.97;18.77;;;;;;;-2.57;100.00;100025.53;5054545;28;20232;-79
2023/02/14 03:58:39;;;;;;;36.77;17.70;;;;;;;-2.56;100.00;100010.88;5054567;28;20211;-77
2023/02/14 04:01:13;;;;;;;39.80;17.83;;;;;;;-2.57;100.00;100009.13;5054424;28;20215;-78
2023/02/14 04:03:42;;;;;;;37.03;17.20;;;;;;;-2.63;100.00;100007.31;5054208;28;20231;-79
2023/02/14 04:06:09;;;;;;;33.50;17.30;;;;;;;-2.68;100.00;100010.72;5054056;28;20254;-80
2023/02/14 04:08:37;;;;;;;36.07;17.50;;;;;;;-2.71;100.00;100010.66;5054349;28;20575;-78
2023/02/14 04:11:05;;;;;;;33.93;16.47;;;;;;;-2.72;100.00;100014.09;5054313;28;20221;-79
2023/02/14 04:13:32;;;;;;;33.77;17.10;;;;;;;-2.69;100.00;100015.00;5054189;28;20207;-79
2023/02/14 04:15:58;;;;;;;32.70;16.37;;;;;;;-2.71;100.00;100010.66;5054065;28;20583;-81
2023/02/14 04:21:10;;;;;;;33.67;16.67;;;;;;;-2.68;100.00;100006.44;5054221;28;20234;-78
2023/02/14 04:23:38;;;;;;;32.93;15.87;;;;;;;-2.73;100.00;100009.78;5054064;28;20238;-78
2023/02/14 04:26:05;;;;;;;30.97;16.03;;;;;;;-2.69;100.00;100009.00;5053790;28;20737;-79
2023/02/14 04:28:32;;;;;;;33.53;16.43;;;;;;;-2.75;100.00;100008.91;5053656;28;20215;-80
2023/02/14 04:31:01;;;;;;;33.40;16.20;;;;;;;-2.77;100.00;100008.88;5054026;28;20207;-80
2023/02/14 04:33:27;;;;;;;34.57;15.93;;;;;;;-2.84;100.00;100008.78;5054031;28;20206;-78
2023/02/14 04:35:54;;;;;;;31.50;16.37;;;;;;;-2.86;100.00;100002.72;5053513;28;20235;-78
2023/02/14 04:38:21;;;;;;;35.77;17.80;;;;;;;-2.82;100.00;100004.50;5053390;28;20231;-77
2023/02/14 04:40:49;;;;;;;37.23;17.13;;;;;;;-2.81;100.00;100004.50;5053394;28;20208;-78
2023/02/14 04:43:16;;;;;;;34.63;17.07;;;;;;;-2.79;100.00;100012.28;5053333;28;20267;-78
2023/02/14 04:45:42;;;;;;;32.90;17.17;;;;;;;-2.82;100.00;99997.59;5053376;28;20243;-80
2023/02/14 04:48:09;;;;;;;37.07;18.50;;;;;;;-2.78;100.00;99998.50;5053124;28;20211;-79
2023/02/14 04:50:35;;;;;;;32.40;16.57;;;;;;;-2.76;100.00;100007.19;5053410;28;20227;-78
2023/02/14 04:53:02;;;;;;;32.40;15.93;;;;;;;-2.77;100.00;100010.59;5053426;28;20231;-78
2023/02/14 04:55:28;;;;;;;32.00;15.17;;;;;;;-2.79;100.00;100014.88;5053416;28;20227;-78
2023/02/14 04:57:56;;;;;;;31.80;16.23;;;;;;;-2.85;100.00;100009.63;5052950;28;20243;-79
2023/02/14 05:00:23;;;;;;;33.43;17.00;;;;;;;-2.88;100.00;100007.88;5053238;28;20303;-79
2023/02/14 05:02:50;;;;;;;32.17;16.20;;;;;;;-2.87;100.00;100000.97;5053261;28;20238;-79
2023/02/14 05:05:16;;;;;;;35.00;16.60;;;;;;;-2.90;100.00;100000.94;5053178;28;20416;-80
2023/02/14 05:07:46;;;;;;;33.03;15.70;;;;;;;-2.88;100.00;99996.66;5052877;28;20432;-78
2023/02/14 05:10:13;;;;;;;37.23;18.47;;;;;;;-2.85;100.00;99996.69;5052934;28;20211;-78
2023/02/14 05:12:40;;;;;;;31.00;17.00;;;;;;;-2.81;100.00;99995.91;5053075;28;20242;-78
2023/02/14 05:15:08;;;;;;;33.43;16.37;;;;;;;-2.82;100.00;100002.78;5052714;28;20242;-78
2023/02/14 05:17:36;;;;;;;34.60;16.37;;;;;;;-2.76;100.00;100002.00;5052471;28;20227;-80
2023/02/14 05:20:04;;;;;;;36.67;16.97;;;;;;;-2.71;100.00;100002.91;5052631;28;20212;-78
2023/02/14 05:22:31;;;;;;;37.13;17.67;;;;;;;-2.67;100.00;99991.75;5052882;28;20228;-78
2023/02/14 05:24:57;;;;;;;32.17;16.03;;;;;;;-2.71;100.00;100002.91;5052761;28;20224;-80
2023/02/14 05:27:24;;;;;;;38.83;17.77;;;;;;;-2.77;100.00;100002.81;5052349;28;20215;-78
2023/02/14 05:29:50;;;;;;;39.53;17.50;;;;;;;-2.75;100.00;100003.72;5052768;28;20234;-79
2023/02/14 05:32:18;;;;;;;36.17;16.23;;;;;;;-2.76;100.00;99996.81;5052943;28;20211;-80
2023/02/14 05:34:44;;;;;;;36.60;17.57;;;;;;;-2.72;100.00;99998.59;5052465;28;20224;-78
2023/02/14 05:37:11;;;;;;;30.20;15.93;;;;;;;-2.74;100.00;99995.13;5052114;28;20211;-80
2023/02/14 05:39:37;;;;;;;32.77;16.30;;;;;;;-2.77;100.00;99995.06;5052389;28;20215;-79
2023/02/14 05:42:04;;;;;;;32.23;16.37;;;;;;;-2.76;100.00;100000.25;5052424;28;20211;-79
2023/02/14 05:44:31;;;;;;;33.90;15.97;;;;;;;-2.75;100.00;100001.16;5052399;28;20212;-79
2023/02/14 05:46:57;;;;;;;32.97;16.63;;;;;;;-2.76;100.00;99997.69;5052079;28;20585;-78
2023/02/14 05:49:25;;;;;;;29.53;14.57;;;;;;;-2.79;100.00;100004.53;5052317;28;20211;-79
2023/02/14 05:51:51;;;;;;;32.90;15.53;;;;;;;-2.87;100.00;99998.41;5052278;28;20211;-80
2023/02/14 05:54:18;;;;;;;33.97;17.83;;;;;;;-2.87;100.00;100011.34;5051541;28;20212;-80
2023/02/14 05:56:44;;;;;;;30.27;14.80;;;;;;;-2.86;100.00;100007.88;5051969;28;20216;-79
2023/02/14 05:59:13;;;;;;;30.33;15.37;;;;;;;-2.86;100.00;100016.53;5051968;28;20674;-79
2023/02/14 06:01:39;;;;;;;32.23;15.40;;;;;;;-2.92;100.00;100011.28;5052044;28;20314;-79
2023/02/14 06:04:05;;;;;;;32.53;16.23;;;;;;;-2.95;100.00;100015.53;5051904;28;20243;-79
2023/02/14 06:06:33;;;;;;;33.23;16.67;;;;;;;-2.96;100.00;100019.84;5051377;28;20740;-80
2023/02/14 06:09:00;;;;;;;35.63;15.80;;;;;;;-2.95;100.00;100018.13;5051817;28;20206;-80
2023/02/14 06:11:26;;;;;;;30.17;14.87;;;;;;;-2.99;100.00;100014.59;5051953;28;20208;-79
2023/02/14 06:13:53;;;;;;;33.60;16.70;;;;;;;-3.05;100.00;100018.84;5051884;28;20205;-79
2023/02/14 06:16:19;;;;;;;29.93;15.20;;;;;;;-3.03;100.00;100027.47;5063225;23;20232;-82
2023/02/14 06:18:46;;;;;;;32.50;15.40;;;;;;;-2.99;100.00;100029.28;5051957;28;20215;-83
2023/02/14 06:21:12;;;;;;;30.00;15.57;;;;;;;-3.01;100.00;100028.38;5051871;28;20219;-83
2023/02/14 06:23:40;;;;;;;29.53;14.73;;;;;;;-3.04;100.00;100025.75;5051709;28;20732;-83
2023/02/14 06:26:06;;;;;;;31.33;15.07;;;;;;;-3.09;100.00;100017.03;5051688;28;20581;-83
2023/02/14 06:28:35;;;;;;;32.23;15.90;;;;;;;-3.06;100.00;100027.44;5051417;28;20212;-83
2023/02/14 06:31:01;;;;;;;31.57;14.93;;;;;;;-3.07;100.00;100029.16;5051186;28;20208;-83
2023/02/14 06:33:28;;;;;;;33.20;16.87;;;;;;;-3.07;100.00;100036.06;5051302;28;20692;-83
2023/02/14 06:35:54;;;;;;;34.17;16.50;;;;;;;-3.03;100.00;100036.13;5051603;28;20740;-83
2023/02/14 06:38:21;;;;;;;34.43;15.77;;;;;;;-3.00;100.00;100030.13;5051151;28;20212;-83
2023/02/14 06:40:48;;;;;;;35.07;15.47;;;;;;;-3.02;100.00;100029.22;5051556;28;20207;-83
2023/02/14 06:43:15;;;;;;;35.50;17.23;;;;;;;-2.97;100.00;100032.75;5051218;28;20231;-83
2023/02/14 06:45:42;;;;;;;32.50;16.63;;;;;;;-2.92;100.00;100042.31;5051194;28;20223;-83
2023/02/14 06:48:09;;;;;;;31.03;15.33;;;;;;;-2.95;100.00;100037.09;5050795;28;20261;-83
2023/02/14 06:50:36;;;;;;;29.50;15.27;;;;;;;-2.94;100.00;100032.78;5051390;28;20211;-83
2023/02/14 06:53:02;;;;;;;27.87;14.67;;;;;;;-2.91;100.00;100028.53;5051403;28;20219;-83
2023/02/14 06:55:29;;;;;;;29.07;15.13;;;;;;;-2.89;100.00;100041.50;5051008;28;20349;-83
2023/02/14 06:57:56;;;;;;;29.67;14.20;;;;;;;-2.88;100.00;100038.91;5050742;28;20212;-83
2023/02/14 07:00:23;;;;;;;28.50;15.60;;;;;;;-2.86;100.00;100039.81;5050929;28;20208;-83
2023/02/14 07:02:49;;;;;;;33.73;16.47;;;;;;;-2.86;100.00;100036.34;5050599;28;20227;-83
2023/02/14 07:05:17;;;;;;;38.57;16.57;;;;;;;-2.81;100.00;100020.03;5050677;28;20326;-82
2023/02/14 07:07:44;;;;;;;31.37;14.93;;;;;;;-2.81;100.00;100024.34;5050801;28;20580;-83
2023/02/14 07:10:11;;;;;;;30.70;15.87;;;;;;;-2.73;100.00;100033.06;5051005;28;20208;-83
2023/02/14 07:12:38;;;;;;;33.67;15.97;;;;;;;-2.70;100.00;100030.53;5051164;28;20227;-83
2023/02/14 07:15:07;;;;;;;34.63;16.70;;;;;;;-2.62;100.00;100026.31;5050839;28;20236;-82
2023/02/14 07:17:34;;;;;;;31.73;16.50;;;;;;;-2.50;100.00;100026.47;5050863;28;20215;-83
2023/02/14 07:20:00;;;;;;;33.63;17.10;;;;;;;-2.45;100.00;100024.81;5051286;28;20577;-83
2023/02/14 07:22:26;;;;;;;40.33;18.13;;;;;;;-2.41;100.00;100031.75;5050931;28;20235;-83
2023/02/14 07:24:53;;;;;;;37.57;17.33;;;;;;;-2.33;100.00;100017.19;5050922;28;20216;-83
2023/02/14 07:27:19;;;;;;;37.13;18.90;;;;;;;-2.20;100.00;100026.84;5050566;28;20207;-83
2023/02/14 07:29:46;;;;;;;34.37;17.57;;;;;;;-2.11;100.00;100026.91;5050783;28;20212;-84
2023/02/14 07:32:14;;;;;;;38.70;17.60;;;;;;;-1.99;100.00;100021.88;5050977;28;20208;-84
2023/02/14 07:34:40;;;;;;;38.63;18.43;;;;;;;-1.92;100.00;100021.06;5051365;28;20215;-83
2023/02/14 07:37:07;;;;;;;37.50;18.13;;;;;;;-1.87;100.00;100022.00;5050583;28;20223;-82
2023/02/14 07:39:33;;;;;;;41.13;18.63;;;;;;;-1.80;100.00;100021.19;5050908;28;20208;-86
2023/02/14 07:42:00;;;;;;;36.13;17.27;;;;;;;-1.71;100.00;100023.88;5050968;28;20709;-84
2023/02/14 07:44:27;;;;;;;35.33;17.50;;;;;;;-1.63;100.00;100022.22;5050956;28;20235;-84
2023/02/14 07:46:53;;;;;;;36.60;18.40;;;;;;;-1.61;100.00;100025.72;5053759;28;20244;-83
2023/02/14 07:49:21;;;;;;;38.40;19.13;;;;;;;-1.59;100.00;100024.84;5051992;28;20216;-83
2023/02/14 07:51:48;;;;;;;35.50;17.80;;;;;;;-1.56;100.00;100018.81;5050518;28;20212;-84
2023/02/14 07:54:14;;;;;;;41.20;18.63;;;;;;;-1.49;100.00;100015.44;5050410;28;20208;-84
2023/02/14 07:56:41;;;;;;;37.93;18.43;;;;;;;-1.31;100.00;100020.75;5050152;28;20232;-83
2023/02/14 07:59:07;;;;;;;40.00;19.23;;;;;;;-1.33;100.00;100017.28;5050282;28;20208;-83
2023/02/14 08:01:33;;;;;;;35.50;18.13;;;;;;;-1.25;100.00;100028.59;5050481;28;20208;-83
2023/02/14 08:04:00;;;;;;;35.63;18.17;;;;;;;-1.16;100.00;100020.88;5050248;28;20713;-83
2023/02/14 08:06:28;;;;;;;35.97;18.73;;;;;;;-1.08;100.00;100011.41;5049859;28;20595;-84
2023/02/14 08:08:54;;;;;;;41.73;18.73;;;;;;;-1.02;100.00;100012.34;5050239;28;20204;-84
2023/02/14 08:14:05;;;;;;;38.47;19.93;;;;;;;-0.84;100.00;100011.56;5050382;28;20208;-84
2023/02/14 08:16:33;;;;;;;37.30;19.53;;;;;;;-0.76;100.00;100013.34;5051164;28;20243;-84
2023/02/14 08:19:00;;;;;;;35.57;18.20;;;;;;;-0.71;100.00;100006.47;5054011;28;20208;-83
2023/02/14 08:21:28;;;;;;;38.90;19.07;;;;;;;-0.71;100.00;100011.66;5053940;28;20232;-83
2023/02/14 08:23:54;;;;;;;35.60;18.37;;;;;;;-0.65;100.00;100009.09;5053742;28;20237;-83
2023/02/14 08:26:21;;;;;;;40.73;19.27;;;;;;;-0.56;100.00;100010.88;5053374;28;20232;-84
2023/02/14 08:28:47;;;;;;;43.40;21.57;;;;;;;-0.48;100.00;100004.84;5053793;28;20216;-83
2023/02/14 08:31:22;;;;;;;38.47;19.77;;;;;;;-0.40;100.00;100010.03;5053822;28;20237;-84
2023/02/14 08:33:49;;;;;;;43.33;21.07;;;;;;;-0.28;100.00;100009.22;5053762;28;20205;-84
2023/02/14 08:36:16;;;;;;;39.67;20.53;;;;;;;-0.23;100.00;100005.78;5053408;28;20252;-83
2023/02/14 08:38:46;;;;;;;39.97;20.47;;;;;;;-0.14;100.00;100003.22;5054257;28;20215;-84
2023/02/14 08:41:13;;;;;;;39.47;20.50;;;;;;;-0.05;100.00;100007.56;5053423;28;20219;-85
2023/02/14 08:43:39;;;;;;;36.63;20.93;;;;;;;0.07;100.00;100004.13;5053692;28;20574;-84
2023/02/14 08:46:06;;;;;;;37.93;20.10;;;;;;;0.14;100.00;100014.53;5053328;28;20228;-84
2023/02/14 08:48:34;;;;;;;38.20;20.57;;;;;;;0.19;100.00;100011.97;5053410;28;20219;-83
2023/02/14 08:51:04;;;;;;;39.43;20.23;;;;;;;0.37;100.00;100007.63;5053363;28;20218;-84
2023/02/14 08:53:31;;;;;;;41.17;21.67;;;;;;;0.54;100.00;99998.09;5053468;28;20208;-83
2023/02/14 08:56:03;;;;;;;36.87;20.10;;;;;;;0.66;100.00;100000.72;5053305;28;20614;-84
2023/02/14 08:58:30;;;;;;;33.50;18.90;;;;;;;0.73;100.00;100007.63;5053082;28;20208;-83
2023/02/14 09:00:57;;;;;;;37.77;20.40;;;;;;;0.70;100.00;100010.25;5053048;28;20213;-83
2023/02/14 09:03:23;;;;;;;35.27;19.50;;;;;;;0.71;100.00;100004.19;5053066;28;20233;-85
2023/02/14 09:05:50;;;;;;;34.43;19.73;;;;;;;0.74;100.00;100009.38;5052910;28;20235;-84
2023/02/14 09:08:16;;;;;;;34.97;19.50;;;;;;;0.76;100.00;100002.44;5051598;28;20204;-85
2023/02/14 09:10:43;;;;;;;38.20;19.40;;;;;;;0.88;100.00;99991.16;5051432;28;20217;-85
2023/02/14 09:13:11;;;;;;;34.67;19.13;;;;;;;1.01;100.00;100001.56;5052103;28;20213;-86
2023/02/14 09:15:37;;;;;;;36.57;19.90;;;;;;;1.18;100.00;99986.72;5051841;28;20354;-86
2023/02/14 09:18:04;;;;;;;37.27;19.63;;;;;;;1.32;100.00;99989.31;5048820;28;20214;-85
2023/02/14 09:20:30;;;;;;;34.13;19.30;;;;;;;1.45;100.00;99984.06;5044815;28;20208;-85
2023/02/14 09:22:57;;;;;;;29.77;17.53;;;;;;;1.49;100.00;99983.19;5051763;28;20241;-86
2023/02/14 09:25:23;;;;;;;31.70;18.43;;;;;;;1.51;100.00;99976.22;5051918;28;20246;-85
2023/02/14 09:27:50;;;;;;;32.80;18.00;;;;;;;1.57;100.00;99981.41;5050185;28;20207;-85
2023/02/14 09:30:18;;;;;;;35.07;20.27;;;;;;;1.63;100.00;99986.59;5051717;28;20225;-85
2023/02/14 09:32:44;;;;;;;32.33;18.67;;;;;;;1.63;100.00;99981.38;5051889;28;20586;-84
2023/02/14 09:35:16;;;;;;;35.40;19.17;;;;;;;1.65;100.00;99979.63;5051663;28;20230;-85
2023/02/14 09:37:49;;;;;;;34.80;19.07;;;;;;;1.67;100.00;99980.47;5051455;28;20215;-85
2023/02/14 09:40:19;;;;;;;34.67;18.23;;;;;;;1.70;100.00;99967.44;5051319;28;20212;-84
2023/02/14 09:43:02;;;;;;;32.80;19.70;;;;;;;1.77;100.00;99969.13;5051442;28;20215;-84
2023/02/14 09:45:32;;;;;;;34.67;19.77;;;;;;;1.97;100.00;99967.25;5051590;28;20238;-84
2023/02/14 09:48:04;;;;;;;31.03;19.10;;;;;;;2.00;100.00;99962.03;5051413;28;20219;-87
2023/02/14 09:50:35;;;;;;;32.13;18.83;;;;;;;2.09;100.00;99964.56;5051294;28;20696;-87
2023/02/14 09:53:12;;;;;;;32.57;19.20;;;;;;;2.17;100.00;99960.19;5051622;28;20216;-87
2023/02/14 09:55:43;;;;;;;30.40;19.20;;;;;;;2.29;100.00;99965.34;5051139;28;20227;-88
2023/02/14 09:58:16;;;;;;;30.93;19.57;;;;;;;2.40;100.00;99963.47;5051221;28;20211;-88
2023/02/14 10:00:48;;;;;;;30.20;18.57;;;;;;;2.47;100.00;99959.97;5051457;28;20533;-86
2023/02/14 10:03:47;;;;;;;32.33;18.33;;;;;;;2.51;100.00;99956.44;5051493;28;20557;-84
2023/02/14 10:06:28;;;;;;;32.40;19.00;;;;;;;2.70;100.00;99947.56;5050814;28;20240;-86
2023/02/14 10:09:06;;;;;;;28.90;17.57;;;;;;;2.75;100.00;99955.38;5051338;28;20225;-88
2023/02/14 10:11:34;;;;;;;31.57;18.30;;;;;;;2.81;100.00;99961.38;5051224;28;20668;-86
2023/02/14 10:14:05;;;;;;;31.20;18.73;;;;;;;2.98;100.00;99943.81;5051230;28;20212;-86
2023/02/14 10:16:39;;;;;;;30.30;17.63;;;;;;;3.01;100.00;99948.97;5050618;28;20257;-85
2023/02/14 10:19:17;;;;;;;30.70;18.57;;;;;;;3.16;100.00;99945.34;5047866;28;20268;-78
2023/02/14 10:21:48;;;;;;;31.70;19.03;;;;;;;3.32;100.00;99945.19;5046128;28;20215;-81
2023/02/14 10:24:19;;;;;;;30.03;18.43;;;;;;;3.28;100.00;99942.59;5051013;28;20229;-81
2023/02/14 10:26:49;;;;;;;28.70;18.27;;;;;;;3.29;100.00;99936.47;5050571;28;20230;-84
2023/02/14 10:29:17;;;;;;;31.33;21.77;;;;;;;3.41;100.00;99939.81;5047834;28;20451;-82
2023/02/14 10:31:54;;;;;;;29.73;18.70;;;;;;;3.55;100.00;99932.66;5050840;28;20603;-89
2023/02/14 10:34:30;;;;;;;31.37;18.70;;;;;;;3.50;100.00;99926.66;5050666;28;20297;-87
2023/02/14 10:37:14;;;;;;;28.67;17.37;;;;;;;3.54;100.00;99930.09;5050008;28;20285;-83
2023/02/14 10:40:03;;;;;;;31.00;18.10;;;;;;;3.68;100.00;99918.53;5049854;28;20209;-80
2023/02/14 10:42:42;;;;;;;30.23;17.97;;;;;;;3.82;100.00;99920.97;5050464;28;20282;-82
2023/02/14 10:45:20;;;;;;;27.80;17.37;;;;;;;3.97;100.00;99921.63;5050622;28;20237;-85
2023/02/14 10:47:55;;;;;;;26.77;16.73;;;;;;;3.98;100.00;99923.34;5050029;28;20288;-83
2023/02/14 10:50:30;;;;;;;23.97;15.57;;;;;;;4.07;100.00;99918.00;5050423;28;20240;-83
2023/02/14 10:53:07;;;;;;;26.02;19.00;;;;;;;4.15;100.00;99910.03;5046274;28;20436;-83
2023/02/14 10:55:43;;;;;;;25.77;17.60;;;;;;;4.26;100.00;99908.97;5047996;28;20243;-83
2023/02/14 10:58:13;;;;;;;25.37;16.73;;;;;;;4.33;100.00;99905.34;5049277;28;20219;-84
2023/02/14 11:00:50;;;;;;;26.10;16.67;;;;;;;4.40;100.00;99901.75;5050399;28;20219;-90
2023/02/14 11:03:18;;;;;;;25.87;16.40;;;;;;;4.50;100.00;99898.09;5051585;28;20267;-89
2023/02/14 11:05:47;;;;;;;24.17;16.47;;;;;;;4.63;100.00;99890.88;5050337;28;20269;-89
2023/02/14 11:08:18;;;;;;;25.87;17.23;;;;;;;4.62;100.00;99882.16;5049902;28;20325;-89
2023/02/14 11:10:45;;;;;;;23.67;15.83;;;;;;;4.76;100.00;99880.16;5050492;28;20184;-89
2023/02/14 11:13:29;;;;;;;27.03;16.60;;;;;;;4.78;100.00;99870.53;5050320;28;20338;-89
2023/02/14 11:15:59;;;;;;;24.33;16.20;;;;;;;4.87;100.00;99862.47;5050171;28;20242;-88
2023/02/14 11:18:31;;;;;;;24.43;15.93;;;;;;;4.92;100.00;99868.50;5049971;28;20275;-85
2023/02/14 11:21:03;;;;;;;25.27;16.33;;;;;;;5.02;100.00;99871.81;5043208;28;20214;-87
2023/02/14 11:23:33;;;;;;;24.67;16.37;;;;;;;5.11;100.00;99867.25;5030904;28;20324;-88
2023/02/14 11:26:01;;;;;;;24.33;18.58;;;;;;;5.25;100.00;99862.56;5029233;28;20457;-88
2023/02/14 11:28:28;;;;;;;24.53;16.67;;;;;;;5.34;100.00;99857.16;5045998;28;20215;-89
2023/02/14 11:30:55;;;;;;;22.97;15.60;;;;;;;5.42;100.00;99851.72;5047099;28;20206;-87
2023/02/14 11:33:37;;;;;;;24.20;16.43;;;;;;;5.47;100.00;99848.13;5049627;28;20215;-87